sensor_id;sensor_type;location;lat;lon;timestamp;P1;durP1;ratioP1;P2;durP2;ratioP2
23573;SDS011;11965;53.640;10.050;2023-08-21T00:01:37;6.28;;;6.28;;
23573;SDS011;11965;53.640;10.050;2023-08-21T00:04:04;5.76;;;5.76;;
23573;SDS011;11965;53.640;10.050;2023-08-21T00:06:31;5.28;;;5.28;;
23573;SDS011;11965;53.640;10.050;2023-08-21T00:08:58;5.13;;;5.13;;
23573;SDS011;11965;53.640;10.050;2023-08-21T00:11:27;4.61;;;4.61;;
23573;SDS011;11965;53.640;10.050;2023-08-21T00:13:54;5.24;;;5.24;;
23573;SDS011;11965;53.640;10.050;2023-08-21T00:16:21;5.11;;;5.11;;
23573;SDS011;11965;53.640;10.050;2023-08-21T00:18:48;5.07;;;5.07;;
23573;SDS011;11965;53.640;10.050;2023-08-21T00:21:15;4.90;;;4.90;;
23573;SDS011;11965;53.640;10.050;2023-08-21T00:23:41;5.13;;;5.13;;
23573;SDS011;11965;53.640;10.050;2023-08-21T00:26:08;4.64;;;4.64;;
23573;SDS011;11965;53.640;10.050;2023-08-21T00:28:37;4.89;;;4.89;;
23573;SDS011;11965;53.640;10.050;2023-08-21T00:31:03;4.62;;;4.62;;
23573;SDS011;11965;53.640;10.050;2023-08-21T00:33:32;4.59;;;4.59;;
23573;SDS011;11965;53.640;10.050;2023-08-21T00:36:00;4.81;;;4.81;;
23573;SDS011;11965;53.640;10.050;2023-08-21T00:38:27;4.42;;;4.42;;
23573;SDS011;11965;53.640;10.050;2023-08-21T00:40:54;4.58;;;4.58;;
23573;SDS011;11965;53.640;10.050;2023-08-21T00:43:20;4.46;;;4.46;;
23573;SDS011;11965;53.640;10.050;2023-08-21T00:45:49;4.59;;;4.59;;
23573;SDS011;11965;53.640;10.050;2023-08-21T00:48:17;4.68;;;4.68;;
23573;SDS011;11965;53.640;10.050;2023-08-21T00:50:45;4.54;;;4.54;;
23573;SDS011;11965;53.640;10.050;2023-08-21T00:53:12;4.44;;;4.44;;
23573;SDS011;11965;53.640;10.050;2023-08-21T00:55:39;4.54;;;4.54;;
23573;SDS011;11965;53.640;10.050;2023-08-21T00:58:08;4.48;;;4.48;;
23573;SDS011;11965;53.640;10.050;2023-08-21T01:00:37;4.58;;;4.58;;
23573;SDS011;11965;53.640;10.050;2023-08-21T01:03:06;4.45;;;4.45;;
23573;SDS011;11965;53.640;10.050;2023-08-21T01:05:34;4.49;;;4.49;;
23573;SDS011;11965;53.640;10.050;2023-08-21T01:08:02;4.60;;;4.60;;
23573;SDS011;11965;53.640;10.050;2023-08-21T01:10:37;4.30;;;4.30;;
23573;SDS011;11965;53.640;10.050;2023-08-21T01:13:15;4.29;;;4.29;;
23573;SDS011;11965;53.640;10.050;2023-08-21T01:15:50;4.32;;;4.32;;
23573;SDS011;11965;53.640;10.050;2023-08-21T01:18:21;4.77;;;4.77;;
23573;SDS011;11965;53.640;10.050;2023-08-21T01:20:52;4.46;;;4.46;;
23573;SDS011;11965;53.640;10.050;2023-08-21T01:23:29;4.48;;;4.48;;
23573;SDS011;11965;53.640;10.050;2023-08-21T01:25:57;4.32;;;4.32;;
23573;SDS011;11965;53.640;10.050;2023-08-21T01:28:24;4.25;;;4.25;;
23573;SDS011;11965;53.640;10.050;2023-08-21T01:30:53;4.29;;;4.29;;
23573;SDS011;11965;53.640;10.050;2023-08-21T01:33:27;4.38;;;4.38;;
23573;SDS011;11965;53.640;10.050;2023-08-21T01:36:02;4.07;;;4.07;;
23573;SDS011;11965;53.640;10.050;2023-08-21T01:38:32;4.38;;;4.38;;
23573;SDS011;11965;53.640;10.050;2023-08-21T01:41:00;4.20;;;4.20;;
23573;SDS011;11965;53.640;10.050;2023-08-21T01:43:28;4.51;;;4.51;;
23573;SDS011;11965;53.640;10.050;2023-08-21T01:45:54;4.55;;;4.55;;
23573;SDS011;11965;53.640;10.050;2023-08-21T01:48:22;4.55;;;4.55;;
23573;SDS011;11965;53.640;10.050;2023-08-21T01:50:48;4.45;;;4.45;;
23573;SDS011;11965;53.640;10.050;2023-08-21T01:53:15;4.53;;;4.53;;
23573;SDS011;11965;53.640;10.050;2023-08-21T01:55:44;4.49;;;4.49;;
23573;SDS011;11965;53.640;10.050;2023-08-21T01:58:11;4.62;;;4.62;;
23573;SDS011;11965;53.640;10.050;2023-08-21T02:00:38;4.54;;;4.54;;
23573;SDS011;11965;53.640;10.050;2023-08-21T02:03:05;4.64;;;4.64;;
23573;SDS011;11965;53.640;10.050;2023-08-21T02:05:36;4.28;;;4.28;;
23573;SDS011;11965;53.640;10.050;2023-08-21T02:08:04;4.17;;;4.17;;
23573;SDS011;11965;53.640;10.050;2023-08-21T02:10:31;4.38;;;4.38;;
23573;SDS011;11965;53.640;10.050;2023-08-21T02:13:00;4.52;;;4.52;;
23573;SDS011;11965;53.640;10.050;2023-08-21T02:15:27;4.21;;;4.21;;
23573;SDS011;11965;53.640;10.050;2023-08-21T02:17:54;4.44;;;4.44;;
23573;SDS011;11965;53.640;10.050;2023-08-21T02:20:21;4.38;;;4.38;;
23573;SDS011;11965;53.640;10.050;2023-08-21T02:22:47;4.35;;;4.35;;
23573;SDS011;11965;53.640;10.050;2023-08-21T02:25:14;4.20;;;4.20;;
23573;SDS011;11965;53.640;10.050;2023-08-21T02:27:41;4.48;;;4.48;;
23573;SDS011;11965;53.640;10.050;2023-08-21T02:30:10;4.31;;;4.31;;
23573;SDS011;11965;53.640;10.050;2023-08-21T02:32:37;4.34;;;4.34;;
23573;SDS011;11965;53.640;10.050;2023-08-21T02:35:06;4.26;;;4.26;;
23573;SDS011;11965;53.640;10.050;2023-08-21T02:37:33;4.26;;;4.26;;
23573;SDS011;11965;53.640;10.050;2023-08-21T02:40:05;4.48;;;4.48;;
23573;SDS011;11965;53.640;10.050;2023-08-21T02:42:34;4.56;;;4.56;;
23573;SDS011;11965;53.640;10.050;2023-08-21T02:45:01;4.64;;;4.64;;
23573;SDS011;11965;53.640;10.050;2023-08-21T02:47:35;4.49;;;4.49;;
23573;SDS011;11965;53.640;10.050;2023-08-21T02:50:03;4.51;;;4.51;;
23573;SDS011;11965;53.640;10.050;2023-08-21T02:52:30;4.36;;;4.36;;
23573;SDS011;11965;53.640;10.050;2023-08-21T02:54:57;4.70;;;4.70;;
23573;SDS011;11965;53.640;10.050;2023-08-21T02:57:25;3.72;;;3.72;;
23573;SDS011;11965;53.640;10.050;2023-08-21T02:59:52;4.07;;;4.07;;
23573;SDS011;11965;53.640;10.050;2023-08-21T03:02:20;4.24;;;4.24;;
23573;SDS011;11965;53.640;10.050;2023-08-21T03:04:49;4.19;;;4.19;;
23573;SDS011;11965;53.640;10.050;2023-08-21T03:07:16;4.27;;;4.27;;
23573;SDS011;11965;53.640;10.050;2023-08-21T03:09:44;4.45;;;4.45;;
23573;SDS011;11965;53.640;10.050;2023-08-21T03:12:12;4.36;;;4.36;;
23573;SDS011;11965;53.640;10.050;2023-08-21T03:14:39;4.42;;;4.42;;
23573;SDS011;11965;53.640;10.050;2023-08-21T03:17:06;4.47;;;4.47;;
23573;SDS011;11965;53.640;10.050;2023-08-21T03:19:33;4.84;;;4.84;;
23573;SDS011;11965;53.640;10.050;2023-08-21T03:22:02;4.91;;;4.91;;
23573;SDS011;11965;53.640;10.050;2023-08-21T03:24:31;4.49;;;4.49;;
23573;SDS011;11965;53.640;10.050;2023-08-21T03:26:58;4.52;;;4.52;;
23573;SDS011;11965;53.640;10.050;2023-08-21T03:29:25;5.03;;;5.03;;
23573;SDS011;11965;53.640;10.050;2023-08-21T03:31:52;4.91;;;4.91;;
23573;SDS011;11965;53.640;10.050;2023-08-21T03:34:20;4.94;;;4.94;;
23573;SDS011;11965;53.640;10.050;2023-08-21T03:36:49;5.00;;;5.00;;
23573;SDS011;11965;53.640;10.050;2023-08-21T03:39:20;5.02;;;5.02;;
23573;SDS011;11965;53.640;10.050;2023-08-21T03:41:47;5.25;;;5.25;;
23573;SDS011;11965;53.640;10.050;2023-08-21T03:44:15;5.12;;;5.12;;
23573;SDS011;11965;53.640;10.050;2023-08-21T03:46:42;5.69;;;5.69;;
23573;SDS011;11965;53.640;10.050;2023-08-21T03:49:09;5.89;;;5.89;;
23573;SDS011;11965;53.640;10.050;2023-08-21T03:51:36;5.91;;;5.91;;
23573;SDS011;11965;53.640;10.050;2023-08-21T03:54:03;6.13;;;6.13;;
23573;SDS011;11965;53.640;10.050;2023-08-21T03:56:32;5.81;;;5.81;;
23573;SDS011;11965;53.640;10.050;2023-08-21T03:58:59;5.71;;;5.71;;
23573;SDS011;11965;53.640;10.050;2023-08-21T04:01:27;6.09;;;6.09;;
23573;SDS011;11965;53.640;10.050;2023-08-21T04:03:54;5.91;;;5.91;;
23573;SDS011;11965;53.640;10.050;2023-08-21T04:06:21;6.14;;;6.14;;
23573;SDS011;11965;53.640;10.050;2023-08-21T04:08:47;6.29;;;6.29;;
23573;SDS011;11965;53.640;10.050;2023-08-21T04:11:14;6.05;;;6.05;;
23573;SDS011;11965;53.640;10.050;2023-08-21T04:13:44;6.29;;;6.29;;
23573;SDS011;11965;53.640;10.050;2023-08-21T04:16:10;5.89;;;5.89;;
23573;SDS011;11965;53.640;10.050;2023-08-21T04:18:40;6.14;;;6.14;;
23573;SDS011;11965;53.640;10.050;2023-08-21T04:21:07;6.05;;;6.05;;
23573;SDS011;11965;53.640;10.050;2023-08-21T04:23:34;5.65;;;5.65;;
23573;SDS011;11965;53.640;10.050;2023-08-21T04:26:01;5.67;;;5.67;;
23573;SDS011;11965;53.640;10.050;2023-08-21T04:28:29;5.67;;;5.67;;
23573;SDS011;11965;53.640;10.050;2023-08-21T04:30:58;5.58;;;5.58;;
23573;SDS011;11965;53.640;10.050;2023-08-21T04:33:25;6.03;;;6.00;;
23573;SDS011;11965;53.640;10.050;2023-08-21T04:35:54;5.85;;;5.85;;
23573;SDS011;11965;53.640;10.050;2023-08-21T04:38:21;5.79;;;5.79;;
23573;SDS011;11965;53.640;10.050;2023-08-21T04:40:47;5.44;;;5.44;;
23573;SDS011;11965;53.640;10.050;2023-08-21T04:43:14;5.69;;;5.69;;
23573;SDS011;11965;53.640;10.050;2023-08-21T04:45:46;5.30;;;5.30;;
23573;SDS011;11965;53.640;10.050;2023-08-21T04:48:15;5.28;;;5.28;;
23573;SDS011;11965;53.640;10.050;2023-08-21T04:50:45;5.77;;;5.77;;
23573;SDS011;11965;53.640;10.050;2023-08-21T04:53:13;5.69;;;5.69;;
23573;SDS011;11965;53.640;10.050;2023-08-21T04:55:40;5.98;;;5.98;;
23573;SDS011;11965;53.640;10.050;2023-08-21T04:58:08;5.55;;;5.55;;
23573;SDS011;11965;53.640;10.050;2023-08-21T05:00:36;5.90;;;5.90;;
23573;SDS011;11965;53.640;10.050;2023-08-21T05:03:06;5.85;;;5.85;;
23573;SDS011;11965;53.640;10.050;2023-08-21T05:05:36;5.53;;;5.53;;
23573;SDS011;11965;53.640;10.050;2023-08-21T05:08:03;5.04;;;5.04;;
23573;SDS011;11965;53.640;10.050;2023-08-21T05:10:30;5.07;;;5.07;;
23573;SDS011;11965;53.640;10.050;2023-08-21T05:12:58;5.04;;;5.04;;
23573;SDS011;11965;53.640;10.050;2023-08-21T05:15:25;5.07;;;5.07;;
23573;SDS011;11965;53.640;10.050;2023-08-21T05:17:54;5.45;;;5.45;;
23573;SDS011;11965;53.640;10.050;2023-08-21T05:20:21;6.11;;;6.11;;
23573;SDS011;11965;53.640;10.050;2023-08-21T05:22:50;6.08;;;6.08;;
23573;SDS011;11965;53.640;10.050;2023-08-21T05:25:17;5.90;;;5.90;;
23573;SDS011;11965;53.640;10.050;2023-08-21T05:27:45;5.64;;;5.64;;
23573;SDS011;11965;53.640;10.050;2023-08-21T05:30:12;5.84;;;5.84;;
23573;SDS011;11965;53.640;10.050;2023-08-21T05:32:40;5.21;;;5.21;;
23573;SDS011;11965;53.640;10.050;2023-08-21T05:35:07;5.57;;;5.57;;
23573;SDS011;11965;53.640;10.050;2023-08-21T05:37:34;5.46;;;5.46;;
23573;SDS011;11965;53.640;10.050;2023-08-21T05:40:03;6.48;;;6.48;;
23573;SDS011;11965;53.640;10.050;2023-08-21T05:42:34;5.64;;;5.64;;
23573;SDS011;11965;53.640;10.050;2023-08-21T05:45:01;6.57;;;6.57;;
23573;SDS011;11965;53.640;10.050;2023-08-21T05:47:30;6.79;;;6.79;;
23573;SDS011;11965;53.640;10.050;2023-08-21T05:49:56;6.82;;;6.82;;
23573;SDS011;11965;53.640;10.050;2023-08-21T05:52:23;7.12;;;7.12;;
23573;SDS011;11965;53.640;10.050;2023-08-21T05:54:50;7.35;;;7.35;;
23573;SDS011;11965;53.640;10.050;2023-08-21T05:57:18;7.56;;;7.56;;
23573;SDS011;11965;53.640;10.050;2023-08-21T05:59:45;7.17;;;7.17;;
23573;SDS011;11965;53.640;10.050;2023-08-21T06:02:13;7.17;;;7.17;;
23573;SDS011;11965;53.640;10.050;2023-08-21T06:04:41;6.47;;;6.47;;
23573;SDS011;11965;53.640;10.050;2023-08-21T06:07:09;6.34;;;6.34;;
23573;SDS011;11965;53.640;10.050;2023-08-21T06:09:36;6.78;;;6.78;;
23573;SDS011;11965;53.640;10.050;2023-08-21T06:12:03;6.05;;;6.05;;
23573;SDS011;11965;53.640;10.050;2023-08-21T06:14:33;6.01;;;5.98;;
23573;SDS011;11965;53.640;10.050;2023-08-21T06:17:02;5.36;;;5.36;;
23573;SDS011;11965;53.640;10.050;2023-08-21T06:19:30;5.24;;;5.21;;
23573;SDS011;11965;53.640;10.050;2023-08-21T06:21:58;4.99;;;4.87;;
23573;SDS011;11965;53.640;10.050;2023-08-21T06:24:24;5.03;;;4.89;;
23573;SDS011;11965;53.640;10.050;2023-08-21T06:26:56;4.37;;;4.37;;
23573;SDS011;11965;53.640;10.050;2023-08-21T06:29:23;4.66;;;4.60;;
23573;SDS011;11965;53.640;10.050;2023-08-21T06:31:52;4.56;;;4.39;;
23573;SDS011;11965;53.640;10.050;2023-08-21T06:34:20;4.64;;;4.36;;
23573;SDS011;11965;53.640;10.050;2023-08-21T06:36:47;4.24;;;4.04;;
23573;SDS011;11965;53.640;10.050;2023-08-21T06:39:13;4.23;;;4.10;;
23573;SDS011;11965;53.640;10.050;2023-08-21T06:41:40;4.48;;;4.22;;
23573;SDS011;11965;53.640;10.050;2023-08-21T06:44:12;3.87;;;3.66;;
23573;SDS011;11965;53.640;10.050;2023-08-21T06:46:39;3.99;;;3.73;;
23573;SDS011;11965;53.640;10.050;2023-08-21T06:49:07;3.90;;;3.63;;
23573;SDS011;11965;53.640;10.050;2023-08-21T06:51:34;3.66;;;3.40;;
23573;SDS011;11965;53.640;10.050;2023-08-21T06:54:01;3.56;;;3.24;;
23573;SDS011;11965;53.640;10.050;2023-08-21T06:56:27;4.11;;;3.67;;
23573;SDS011;11965;53.640;10.050;2023-08-21T06:58:54;3.54;;;3.14;;
23573;SDS011;11965;53.640;10.050;2023-08-21T07:01:21;3.38;;;2.98;;
23573;SDS011;11965;53.640;10.050;2023-08-21T07:03:48;3.73;;;3.26;;
23573;SDS011;11965;53.640;10.050;2023-08-21T07:06:16;3.78;;;3.28;;
23573;SDS011;11965;53.640;10.050;2023-08-21T07:08:43;3.60;;;3.10;;
23573;SDS011;11965;53.640;10.050;2023-08-21T07:11:10;3.47;;;3.04;;
23573;SDS011;11965;53.640;10.050;2023-08-21T07:13:37;3.48;;;3.05;;
23573;SDS011;11965;53.640;10.050;2023-08-21T07:16:05;3.96;;;3.45;;
23573;SDS011;11965;53.640;10.050;2023-08-21T07:18:32;3.52;;;3.08;;
23573;SDS011;11965;53.640;10.050;2023-08-21T07:20:59;3.25;;;2.80;;
23573;SDS011;11965;53.640;10.050;2023-08-21T07:23:28;3.10;;;2.69;;
23573;SDS011;11965;53.640;10.050;2023-08-21T07:25:54;3.64;;;3.16;;
23573;SDS011;11965;53.640;10.050;2023-08-21T07:28:21;3.60;;;3.09;;
23573;SDS011;11965;53.640;10.050;2023-08-21T07:30:53;3.44;;;2.93;;
23573;SDS011;11965;53.640;10.050;2023-08-21T07:33:21;3.26;;;2.78;;
23573;SDS011;11965;53.640;10.050;2023-08-21T07:35:56;2.98;;;2.55;;
23573;SDS011;11965;53.640;10.050;2023-08-21T07:38:23;2.62;;;2.27;;
23573;SDS011;11965;53.640;10.050;2023-08-21T07:40:51;2.49;;;2.17;;
23573;SDS011;11965;53.640;10.050;2023-08-21T07:43:27;2.92;;;2.48;;
23573;SDS011;11965;53.640;10.050;2023-08-21T07:45:54;3.24;;;2.71;;
23573;SDS011;11965;53.640;10.050;2023-08-21T07:48:21;2.74;;;2.29;;
23573;SDS011;11965;53.640;10.050;2023-08-21T07:50:50;3.38;;;2.80;;
23573;SDS011;11965;53.640;10.050;2023-08-21T07:53:17;2.87;;;2.39;;
23573;SDS011;11965;53.640;10.050;2023-08-21T07:55:44;2.74;;;2.30;;
23573;SDS011;11965;53.640;10.050;2023-08-21T07:58:13;2.97;;;2.45;;
23573;SDS011;11965;53.640;10.050;2023-08-21T08:00:40;2.82;;;2.40;;
23573;SDS011;11965;53.640;10.050;2023-08-21T08:03:07;2.79;;;2.45;;
23573;SDS011;11965;53.640;10.050;2023-08-21T08:05:34;3.18;;;2.71;;
23573;SDS011;11965;53.640;10.050;2023-08-21T08:08:01;3.02;;;2.53;;
23573;SDS011;11965;53.640;10.050;2023-08-21T08:10:28;2.60;;;2.21;;
23573;SDS011;11965;53.640;10.050;2023-08-21T08:12:55;2.66;;;2.30;;
23573;SDS011;11965;53.640;10.050;2023-08-21T08:15:24;2.58;;;2.25;;
23573;SDS011;11965;53.640;10.050;2023-08-21T08:17:53;2.81;;;2.41;;
23573;SDS011;11965;53.640;10.050;2023-08-21T08:20:21;2.21;;;1.92;;
23573;SDS011;11965;53.640;10.050;2023-08-21T08:22:48;2.21;;;1.92;;
23573;SDS011;11965;53.640;10.050;2023-08-21T08:25:15;2.44;;;2.08;;
23573;SDS011;11965;53.640;10.050;2023-08-21T08:27:42;2.75;;;2.36;;
23573;SDS011;11965;53.640;10.050;2023-08-21T08:30:10;2.25;;;1.94;;
23573;SDS011;11965;53.640;10.050;2023-08-21T08:32:39;1.98;;;1.74;;
23573;SDS011;11965;53.640;10.050;2023-08-21T08:35:10;2.25;;;1.97;;
23573;SDS011;11965;53.640;10.050;2023-08-21T08:37:37;2.36;;;2.03;;
23573;SDS011;11965;53.640;10.050;2023-08-21T08:40:04;2.38;;;2.00;;
23573;SDS011;11965;53.640;10.050;2023-08-21T08:42:32;2.12;;;1.80;;
23573;SDS011;11965;53.640;10.050;2023-08-21T08:45:01;2.35;;;1.97;;
23573;SDS011;11965;53.640;10.050;2023-08-21T08:47:30;2.24;;;1.87;;
23573;SDS011;11965;53.640;10.050;2023-08-21T08:50:47;2.99;;;2.17;;
23573;SDS011;11965;53.640;10.050;2023-08-21T08:53:18;2.58;;;2.02;;
23573;SDS011;11965;53.640;10.050;2023-08-21T08:55:45;2.23;;;1.78;;
23573;SDS011;11965;53.640;10.050;2023-08-21T08:58:12;2.37;;;1.94;;
23573;SDS011;11965;53.640;10.050;2023-08-21T09:00:39;2.23;;;1.86;;
23573;SDS011;11965;53.640;10.050;2023-08-21T09:03:06;2.34;;;1.94;;
23573;SDS011;11965;53.640;10.050;2023-08-21T09:05:33;2.42;;;2.04;;
23573;SDS011;11965;53.640;10.050;2023-08-21T09:08:09;2.06;;;1.73;;
23573;SDS011;11965;53.640;10.050;2023-08-21T09:10:37;2.10;;;1.80;;
23573;SDS011;11965;53.640;10.050;2023-08-21T09:13:09;2.27;;;1.92;;
23573;SDS011;11965;53.640;10.050;2023-08-21T09:15:38;2.55;;;2.13;;
23573;SDS011;11965;53.640;10.050;2023-08-21T09:18:05;2.61;;;2.14;;
23573;SDS011;11965;53.640;10.050;2023-08-21T09:38:13;2.77;;;2.41;;
23573;SDS011;11965;53.640;10.050;2023-08-21T09:40:40;1.81;;;1.67;;
23573;SDS011;11965;53.640;10.050;2023-08-21T09:43:08;1.97;;;1.80;;
23573;SDS011;11965;53.640;10.050;2023-08-21T09:45:36;1.80;;;1.66;;
23573;SDS011;11965;53.640;10.050;2023-08-21T09:48:04;1.46;;;1.36;;
23573;SDS011;11965;53.640;10.050;2023-08-21T09:50:31;1.92;;;1.81;;
23573;SDS011;11965;53.640;10.050;2023-08-21T09:53:00;1.75;;;1.65;;
23573;SDS011;11965;53.640;10.050;2023-08-21T09:55:29;2.07;;;1.93;;
23573;SDS011;11965;53.640;10.050;2023-08-21T09:57:59;1.94;;;1.80;;
23573;SDS011;11965;53.640;10.050;2023-08-21T10:00:30;1.57;;;1.45;;
23573;SDS011;11965;53.640;10.050;2023-08-21T10:02:59;1.71;;;1.57;;
23573;SDS011;11965;53.640;10.050;2023-08-21T10:05:28;1.66;;;1.54;;
23573;SDS011;11965;53.640;10.050;2023-08-21T10:07:56;1.90;;;1.74;;
23573;SDS011;11965;53.640;10.050;2023-08-21T10:10:30;1.72;;;1.57;;
23573;SDS011;11965;53.640;10.050;2023-08-21T10:12:59;1.99;;;1.80;;
23573;SDS011;11965;53.640;10.050;2023-08-21T10:15:27;1.90;;;1.72;;
23573;SDS011;11965;53.640;10.050;2023-08-21T10:17:56;2.17;;;1.95;;
23573;SDS011;11965;53.640;10.050;2023-08-21T10:20:23;2.08;;;1.86;;
23573;SDS011;11965;53.640;10.050;2023-08-21T10:22:52;2.16;;;1.95;;
23573;SDS011;11965;53.640;10.050;2023-08-21T10:25:21;2.39;;;2.16;;
23573;SDS011;11965;53.640;10.050;2023-08-21T10:27:53;2.19;;;1.98;;
23573;SDS011;11965;53.640;10.050;2023-08-21T10:30:22;1.99;;;1.80;;
23573;SDS011;11965;53.640;10.050;2023-08-21T10:32:50;1.88;;;1.72;;
23573;SDS011;11965;53.640;10.050;2023-08-21T10:35:19;1.83;;;1.67;;
23573;SDS011;11965;53.640;10.050;2023-08-21T10:38:06;1.91;;;1.74;;
23573;SDS011;11965;53.640;10.050;2023-08-21T10:40:35;2.07;;;1.84;;
23573;SDS011;11965;53.640;10.050;2023-08-21T10:43:05;1.80;;;1.61;;
23573;SDS011;11965;53.640;10.050;2023-08-21T10:46:09;2.00;;;1.84;;
23573;SDS011;11965;53.640;10.050;2023-08-21T10:48:37;2.20;;;2.03;;
23573;SDS011;11965;53.640;10.050;2023-08-21T10:51:04;1.77;;;1.65;;
23573;SDS011;11965;53.640;10.050;2023-08-21T10:53:33;2.08;;;1.95;;
23573;SDS011;11965;53.640;10.050;2023-08-21T10:56:03;1.68;;;1.56;;
23573;SDS011;11965;53.640;10.050;2023-08-21T10:58:35;1.58;;;1.47;;
23573;SDS011;11965;53.640;10.050;2023-08-21T11:01:05;1.88;;;1.73;;
23573;SDS011;11965;53.640;10.050;2023-08-21T11:03:31;1.82;;;1.67;;
23573;SDS011;11965;53.640;10.050;2023-08-21T11:06:02;1.73;;;1.59;;
23573;SDS011;11965;53.640;10.050;2023-08-21T11:08:31;1.57;;;1.46;;
23573;SDS011;11965;53.640;10.050;2023-08-21T11:10:59;1.90;;;1.74;;
23573;SDS011;11965;53.640;10.050;2023-08-21T11:13:26;1.89;;;1.75;;
23573;SDS011;11965;53.640;10.050;2023-08-21T11:16:00;2.37;;;2.18;;
23573;SDS011;11965;53.640;10.050;2023-08-21T11:18:29;2.04;;;1.87;;
23573;SDS011;11965;53.640;10.050;2023-08-21T11:21:07;1.72;;;1.57;;
23573;SDS011;11965;53.640;10.050;2023-08-21T11:23:35;1.62;;;1.49;;
23573;SDS011;11965;53.640;10.050;2023-08-21T11:26:04;1.54;;;1.41;;
23573;SDS011;11965;53.640;10.050;2023-08-21T11:28:32;1.68;;;1.54;;
23573;SDS011;11965;53.640;10.050;2023-08-21T11:31:01;1.84;;;1.71;;
23573;SDS011;11965;53.640;10.050;2023-08-21T11:33:27;1.68;;;1.56;;
23573;SDS011;11965;53.640;10.050;2023-08-21T11:35:55;1.70;;;1.58;;
23573;SDS011;11965;53.640;10.050;2023-08-21T11:38:24;1.35;;;1.25;;
23573;SDS011;11965;53.640;10.050;2023-08-21T11:40:53;1.46;;;1.35;;
23573;SDS011;11965;53.640;10.050;2023-08-21T11:43:23;1.64;;;1.51;;
23573;SDS011;11965;53.640;10.050;2023-08-21T11:46:02;1.52;;;1.41;;
23573;SDS011;11965;53.640;10.050;2023-08-21T11:48:30;1.58;;;1.45;;
23573;SDS011;11965;53.640;10.050;2023-08-21T11:50:57;2.39;;;2.14;;
23573;SDS011;11965;53.640;10.050;2023-08-21T11:53:30;1.58;;;1.42;;
23573;SDS011;11965;53.640;10.050;2023-08-21T11:55:58;1.58;;;1.43;;
23573;SDS011;11965;53.640;10.050;2023-08-21T11:58:26;1.41;;;1.28;;
23573;SDS011;11965;53.640;10.050;2023-08-21T12:00:53;1.22;;;1.10;;
23573;SDS011;11965;53.640;10.050;2023-08-21T12:03:21;1.32;;;1.20;;
23573;SDS011;11965;53.640;10.050;2023-08-21T12:05:48;1.05;;;0.97;;
23573;SDS011;11965;53.640;10.050;2023-08-21T12:08:15;1.19;;;1.10;;
23573;SDS011;11965;53.640;10.050;2023-08-21T12:10:42;1.04;;;0.97;;
23573;SDS011;11965;53.640;10.050;2023-08-21T12:13:09;1.19;;;1.11;;
23573;SDS011;11965;53.640;10.050;2023-08-21T12:15:36;1.22;;;1.14;;
23573;SDS011;11965;53.640;10.050;2023-08-21T12:18:03;1.28;;;1.20;;
23573;SDS011;11965;53.640;10.050;2023-08-21T12:20:31;1.25;;;1.19;;
23573;SDS011;11965;53.640;10.050;2023-08-21T12:22:59;1.23;;;1.17;;
23573;SDS011;11965;53.640;10.050;2023-08-21T12:25:26;1.30;;;1.22;;
23573;SDS011;11965;53.640;10.050;2023-08-21T12:27:52;1.24;;;1.16;;
23573;SDS011;11965;53.640;10.050;2023-08-21T12:30:19;1.31;;;1.23;;
23573;SDS011;11965;53.640;10.050;2023-08-21T12:32:46;1.40;;;1.32;;
23573;SDS011;11965;53.640;10.050;2023-08-21T12:35:13;1.47;;;1.37;;
23573;SDS011;11965;53.640;10.050;2023-08-21T12:37:41;1.56;;;1.45;;
23573;SDS011;11965;53.640;10.050;2023-08-21T12:40:08;1.32;;;1.24;;
23573;SDS011;11965;53.640;10.050;2023-08-21T12:42:35;1.41;;;1.33;;
23573;SDS011;11965;53.640;10.050;2023-08-21T12:45:02;1.48;;;1.39;;
23573;SDS011;11965;53.640;10.050;2023-08-21T12:47:30;1.28;;;1.20;;
23573;SDS011;11965;53.640;10.050;2023-08-21T12:49:58;1.32;;;1.24;;
23573;SDS011;11965;53.640;10.050;2023-08-21T12:52:24;1.37;;;1.30;;
23573;SDS011;11965;53.640;10.050;2023-08-21T12:54:53;1.26;;;1.20;;
23573;SDS011;11965;53.640;10.050;2023-08-21T12:57:19;1.67;;;1.58;;
23573;SDS011;11965;53.640;10.050;2023-08-21T12:59:47;1.18;;;1.12;;
23573;SDS011;11965;53.640;10.050;2023-08-21T13:02:13;1.31;;;1.24;;
23573;SDS011;11965;53.640;10.050;2023-08-21T13:04:40;1.46;;;1.40;;
23573;SDS011;11965;53.640;10.050;2023-08-21T13:07:07;1.48;;;1.42;;
23573;SDS011;11965;53.640;10.050;2023-08-21T13:09:35;1.51;;;1.45;;
23573;SDS011;11965;53.640;10.050;2023-08-21T13:12:03;1.83;;;1.76;;
23573;SDS011;11965;53.640;10.050;2023-08-21T13:14:31;1.42;;;1.38;;
23573;SDS011;11965;53.640;10.050;2023-08-21T13:16:57;1.30;;;1.28;;
23573;SDS011;11965;53.640;10.050;2023-08-21T13:19:24;1.62;;;1.57;;
23573;SDS011;11965;53.640;10.050;2023-08-21T13:21:51;1.30;;;1.25;;
23573;SDS011;11965;53.640;10.050;2023-08-21T13:24:19;1.53;;;1.48;;
23573;SDS011;11965;53.640;10.050;2023-08-21T13:26:47;1.44;;;1.39;;
23573;SDS011;11965;53.640;10.050;2023-08-21T13:29:15;1.41;;;1.36;;
23573;SDS011;11965;53.640;10.050;2023-08-21T13:31:42;1.54;;;1.49;;
23573;SDS011;11965;53.640;10.050;2023-08-21T13:34:08;1.64;;;1.59;;
23573;SDS011;11965;53.640;10.050;2023-08-21T13:36:35;1.57;;;1.53;;
23573;SDS011;11965;53.640;10.050;2023-08-21T13:39:02;1.29;;;1.25;;
23573;SDS011;11965;53.640;10.050;2023-08-21T13:41:31;1.68;;;1.64;;
23573;SDS011;11965;53.640;10.050;2023-08-21T13:43:58;1.50;;;1.47;;
23573;SDS011;11965;53.640;10.050;2023-08-21T13:46:26;1.46;;;1.44;;
23573;SDS011;11965;53.640;10.050;2023-08-21T13:48:53;1.55;;;1.52;;
23573;SDS011;11965;53.640;10.050;2023-08-21T13:51:20;1.16;;;1.14;;
23573;SDS011;11965;53.640;10.050;2023-08-21T13:53:46;1.55;;;1.54;;
23573;SDS011;11965;53.640;10.050;2023-08-21T13:56:14;1.44;;;1.41;;
23573;SDS011;11965;53.640;10.050;2023-08-21T13:58:41;1.65;;;1.62;;
23573;SDS011;11965;53.640;10.050;2023-08-21T14:01:08;1.65;;;1.63;;
23573;SDS011;11965;53.640;10.050;2023-08-21T14:03:36;1.45;;;1.44;;
23573;SDS011;11965;53.640;10.050;2023-08-21T14:06:03;1.42;;;1.41;;
23573;SDS011;11965;53.640;10.050;2023-08-21T14:08:30;1.50;;;1.50;;
23573;SDS011;11965;53.640;10.050;2023-08-21T14:10:57;1.43;;;1.43;;
23573;SDS011;11965;53.640;10.050;2023-08-21T14:13:24;1.97;;;1.97;;
23573;SDS011;11965;53.640;10.050;2023-08-21T14:15:50;1.57;;;1.57;;
23573;SDS011;11965;53.640;10.050;2023-08-21T14:18:17;1.70;;;1.68;;
23573;SDS011;11965;53.640;10.050;2023-08-21T14:20:46;1.52;;;1.51;;
23573;SDS011;11965;53.640;10.050;2023-08-21T14:23:12;1.52;;;1.50;;
23573;SDS011;11965;53.640;10.050;2023-08-21T14:25:39;1.34;;;1.32;;
23573;SDS011;11965;53.640;10.050;2023-08-21T14:28:06;1.41;;;1.40;;
23573;SDS011;11965;53.640;10.050;2023-08-21T14:30:33;1.58;;;1.58;;
23573;SDS011;11965;53.640;10.050;2023-08-21T14:33:00;1.55;;;1.55;;
23573;SDS011;11965;53.640;10.050;2023-08-21T14:35:26;1.59;;;1.59;;
23573;SDS011;11965;53.640;10.050;2023-08-21T14:37:55;1.52;;;1.52;;
23573;SDS011;11965;53.640;10.050;2023-08-21T14:40:22;1.82;;;1.82;;
23573;SDS011;11965;53.640;10.050;2023-08-21T14:42:49;1.60;;;1.60;;
23573;SDS011;11965;53.640;10.050;2023-08-21T14:45:15;1.54;;;1.54;;
23573;SDS011;11965;53.640;10.050;2023-08-21T14:47:42;1.53;;;1.53;;
23573;SDS011;11965;53.640;10.050;2023-08-21T14:50:09;1.48;;;1.48;;
23573;SDS011;11965;53.640;10.050;2023-08-21T14:52:37;1.64;;;1.63;;
23573;SDS011;11965;53.640;10.050;2023-08-21T14:55:05;1.55;;;1.55;;
23573;SDS011;11965;53.640;10.050;2023-08-21T14:57:32;1.41;;;1.41;;